Fisher, Louisiana
Current Conditions -  °F | °C
As of 6:56 AM on Saturday 22 Nov 2014 (Local Time) from KAQV Reporting Station
Clear Clear  
Wind Chill: 55°   Ceiling: Unl
Heat Index: 55°   Visibility: 10mi
Dew Point: 50°   Wind: 6mph
Humidity: 83%   Direction: 140°SE
Pressure: 30.15"   Gusts: NA
Location:  31.49°N, 93.47°W
Report Text: KAQV 221256Z AUTO 14005KT 10SM CLR 13/10 A3015 RMK AO2 SLP209 T01280100
Loading
Personal Weather Stations






























Interactive Weather Map New forecast layout! Learn more

10-Day Weather Forecast

Advertisements
Track Severe Weather on mobile